Time,TemperatureF,DewpointF,PressureIn,WindDirection,WindDirectionDegrees,WindSpeedMPH,WindSpeedGustMPH,Humidity,HourlyPrecipIn,Conditions,Clouds,dailyrainin,SoftwareType,DateUTC
2013-11-27 00:00:00,41.3,40.2,29.89,ENE,67,0.0,0.0,96,0.09,,---,0.01,VWS V14.01,2013-11-27 05:00:00,
2013-11-27 00:02:00,41.5,40.5,29.89,ENE,67,0.0,0.0,96,0.09,,---,0.01,VWS V14.01,2013-11-27 05:02:00,
2013-11-27 00:04:00,41.6,40.5,29.88,NNE,13,3.0,3.0,96,0.09,,---,0.01,VWS V14.01,2013-11-27 05:04:00,
2013-11-27 00:07:00,41.6,40.5,29.87,NNW,331,0.0,3.0,96,0.08,,---,0.01,VWS V14.01,2013-11-27 05:07:00,
2013-11-27 00:09:00,41.6,40.5,29.86,NW,319,0.0,0.0,96,0.09,,---,0.02,VWS V14.01,2013-11-27 05:09:00,
2013-11-27 00:14:00,41.8,40.8,29.86,SW,236,0.0,1.0,96,0.08,,---,0.02,VWS V14.01,2013-11-27 05:14:00,
2013-11-27 00:19:00,41.9,40.8,29.85,WSW,248,0.0,3.0,96,0.08,,---,0.03,VWS V14.01,2013-11-27 05:19:00,
2013-11-27 00:24:00,41.9,40.8,29.84,WSW,248,0.0,0.0,96,0.08,,---,0.03,VWS V14.01,2013-11-27 05:24:00,
2013-11-27 00:29:00,42.1,41.0,29.84,WSW,257,0.0,3.0,96,0.08,,---,0.04,VWS V14.01,2013-11-27 05:29:00,
2013-11-27 00:34:00,42.3,41.2,29.83,SE,132,0.0,1.0,96,0.08,,---,0.04,VWS V14.01,2013-11-27 05:34:00,
2013-11-27 00:39:00,42.6,41.5,29.82,SE,135,0.0,0.0,96,0.08,,---,0.05,VWS V14.01,2013-11-27 05:39:00,
2013-11-27 00:44:00,42.8,41.7,29.81,South,180,0.0,0.0,96,0.09,,---,0.07,VWS V14.01,2013-11-27 05:44:00,
2013-11-27 00:49:00,43.1,42.0,29.80,SW,220,0.0,2.0,96,0.09,,---,0.08,VWS V14.01,2013-11-27 05:49:00,
2013-11-27 00:54:00,43.3,42.5,29.79,NNE,30,0.0,1.0,97,0.10,,---,0.09,VWS V14.01,2013-11-27 05:54:00,
2013-11-27 00:59:00,43.6,42.8,29.78,East,97,0.0,5.0,97,0.11,,---,0.11,VWS V14.01,2013-11-27 05:59:00,
2013-11-27 01:04:00,44.1,43.3,29.77,North,5,0.0,0.0,97,0.11,,---,0.12,VWS V14.01,2013-11-27 06:04:00,
2013-11-27 01:09:00,44.5,43.7,29.76,ESE,117,1.0,4.0,97,0.12,,---,0.13,VWS V14.01,2013-11-27 06:09:00,
2013-11-27 01:14:00,44.9,44.1,29.76,ESE,108,1.0,2.0,97,0.12,,---,0.14,VWS V14.01,2013-11-27 06:14:00,
2013-11-27 01:19:00,45.4,44.6,29.76,WSW,243,2.0,3.0,97,0.12,,---,0.15,VWS V14.01,2013-11-27 06:19:00,
2013-11-27 01:24:00,45.8,45.0,29.75,WSW,257,0.0,0.0,97,0.13,,---,0.16,VWS V14.01,2013-11-27 06:24:00,
2013-11-27 01:29:00,46.2,45.4,29.75,West,277,0.0,2.0,97,0.15,,---,0.18,VWS V14.01,2013-11-27 06:29:00,
2013-11-27 01:34:00,46.8,46.0,29.73,SE,125,0.0,2.0,97,0.16,,---,0.20,VWS V14.01,2013-11-27 06:34:00,
2013-11-27 01:39:00,47.3,46.5,29.72,WNW,293,1.0,1.0,97,0.18,,---,0.23,VWS V14.01,2013-11-27 06:39:00,
2013-11-27 01:44:00,47.7,46.9,29.72,WSW,243,0.0,1.0,97,0.19,,---,0.25,VWS V14.01,2013-11-27 06:44:00,
2013-11-27 01:50:00,48.3,47.5,29.72,South,186,1.0,4.0,97,0.19,,---,0.27,VWS V14.01,2013-11-27 06:50:00,
2013-11-27 01:55:00,48.8,48.0,29.71,SE,138,1.0,4.0,97,0.20,,---,0.29,VWS V14.01,2013-11-27 06:55:00,
2013-11-27 02:00:00,49.6,48.8,29.72,WSW,248,3.0,3.0,97,0.20,,---,0.31,VWS V14.01,2013-11-27 07:00:00,
2013-11-27 02:04:00,50.4,49.9,29.72,South,188,2.0,5.0,98,0.20,,---,0.32,VWS V14.01,2013-11-27 07:04:00,
2013-11-27 02:09:00,50.8,50.3,29.70,South,190,3.0,6.0,98,0.22,,---,0.35,VWS V14.01,2013-11-27 07:09:00,
2013-11-27 02:14:00,51.1,50.6,29.69,WSW,242,4.0,4.0,98,0.23,,---,0.37,VWS V14.01,2013-11-27 07:14:00,
2013-11-27 02:19:00,51.4,50.9,29.68,SE,144,0.0,3.0,98,0.25,,---,0.40,VWS V14.01,2013-11-27 07:19:00,
2013-11-27 02:24:00,51.7,51.2,29.68,SSW,199,1.0,4.0,98,0.28,,---,0.44,VWS V14.01,2013-11-27 07:24:00,
2013-11-27 02:29:00,51.9,51.4,29.67,North,5,2.0,4.0,98,0.29,,---,0.47,VWS V14.01,2013-11-27 07:29:00,
2013-11-27 02:34:00,52.0,51.5,29.65,NNE,23,0.0,6.0,98,0.30,,---,0.50,VWS V14.01,2013-11-27 07:34:00,
2013-11-27 02:39:00,52.2,51.7,29.65,SSE,151,4.0,5.0,98,0.29,,---,0.52,VWS V14.01,2013-11-27 07:39:00,
2013-11-27 02:44:00,52.3,51.8,29.65,SW,220,2.0,11.0,98,0.29,,---,0.54,VWS V14.01,2013-11-27 07:44:00,
2013-11-27 02:49:00,52.5,52.0,29.64,SSW,207,2.0,7.0,98,0.30,,---,0.57,VWS V14.01,2013-11-27 07:49:00,
2013-11-27 02:54:00,52.6,52.0,29.64,SSE,150,3.0,6.0,98,0.31,,---,0.60,VWS V14.01,2013-11-27 07:54:00,
2013-11-27 03:00:00,52.8,52.2,29.62,WSW,240,0.0,1.0,98,0.34,,---,0.64,VWS V14.01,2013-11-27 08:00:00,
2013-11-27 03:05:00,52.9,52.3,29.61,SSW,196,3.0,4.0,98,0.36,,---,0.68,VWS V14.01,2013-11-27 08:05:00,
2013-11-27 03:11:00,53.2,52.7,29.59,SSW,198,0.0,5.0,98,0.36,,---,0.71,VWS V14.01,2013-11-27 08:11:00,
2013-11-27 03:16:00,53.2,52.7,29.57,NNE,32,5.0,6.0,98,0.36,,---,0.74,VWS V14.01,2013-11-27 08:16:00,
2013-11-27 03:21:00,53.5,53.0,29.57,SSE,150,3.0,5.0,98,0.35,,---,0.76,VWS V14.01,2013-11-27 08:21:00,
2013-11-27 03:26:00,53.5,52.7,29.55,East,89,3.0,9.0,97,0.33,,---,0.78,VWS V14.01,2013-11-27 08:26:00,
2013-11-27 03:32:00,53.6,52.8,29.55,NE,55,2.0,6.0,97,0.34,,---,0.81,VWS V14.01,2013-11-27 08:32:00,
2013-11-27 03:37:00,53.6,52.8,29.54,SSE,149,3.0,4.0,97,0.34,,---,0.85,VWS V14.01,2013-11-27 08:37:00,
2013-11-27 03:43:00,53.6,52.8,29.53,SSW,212,0.0,3.0,97,0.33,,---,0.86,VWS V14.01,2013-11-27 08:43:00,
2013-11-27 03:48:00,53.6,52.8,29.52,SE,144,2.0,3.0,97,0.35,,---,0.90,VWS V14.01,2013-11-27 08:48:00,
2013-11-27 03:53:00,53.8,53.0,29.52,WSW,242,0.0,3.0,97,0.36,,---,0.94,VWS V14.01,2013-11-27 08:53:00,
2013-11-27 03:59:00,53.8,53.0,29.51,SE,130,0.0,3.0,97,0.36,,---,0.99,VWS V14.01,2013-11-27 08:59:00,
2013-11-27 04:04:00,53.8,53.0,29.50,SSW,207,1.0,3.0,97,0.39,,---,1.05,VWS V14.01,2013-11-27 09:04:00,
2013-11-27 04:09:00,53.9,53.1,29.50,NE,39,2.0,6.0,97,0.38,,---,1.08,VWS V14.01,2013-11-27 09:09:00,
2013-11-27 04:14:00,53.9,53.1,29.50,East,94,0.0,1.0,97,0.41,,---,1.13,VWS V14.01,2013-11-27 09:14:00,
2013-11-27 04:19:00,54.1,53.3,29.50,South,190,0.0,1.0,97,0.46,,---,1.20,VWS V14.01,2013-11-27 09:19:00,
2013-11-27 04:24:00,54.1,53.3,29.49,ESE,104,0.0,5.0,97,0.49,,---,1.25,VWS V14.01,2013-11-27 09:24:00,
2013-11-27 04:29:00,54.2,53.4,29.48,SE,143,0.0,0.0,97,0.51,,---,1.30,VWS V14.01,2013-11-27 09:29:00,
2013-11-27 04:34:00,54.2,53.4,29.48,SE,130,2.0,3.0,97,0.55,,---,1.37,VWS V14.01,2013-11-27 09:34:00,
2013-11-27 04:39:00,54.2,53.4,29.48,SE,126,0.0,0.0,97,0.58,,---,1.43,VWS V14.01,2013-11-27 09:39:00,
2013-11-27 04:44:00,54.2,53.4,29.47,SE,127,0.0,1.0,97,0.63,,---,1.49,VWS V14.01,2013-11-27 09:44:00,
2013-11-27 04:49:00,54.2,53.4,29.46,South,189,0.0,0.0,97,0.66,,---,1.56,VWS V14.01,2013-11-27 09:49:00,
2013-11-27 04:54:00,54.2,53.4,29.45,South,189,0.0,0.0,97,0.67,,---,1.61,VWS V14.01,2013-11-27 09:54:00,
2013-11-27 04:59:00,54.4,53.6,29.45,South,172,0.0,3.0,97,0.68,,---,1.66,VWS V14.01,2013-11-27 09:59:00,
2013-11-27 05:04:00,54.5,53.7,29.44,South,172,0.0,0.0,97,0.68,,---,1.72,VWS V14.01,2013-11-27 10:04:00,
2013-11-27 05:09:00,54.8,54.2,29.44,NNE,25,0.0,3.0,98,0.68,,---,1.75,VWS V14.01,2013-11-27 10:09:00,
2013-11-27 05:14:00,55.7,55.2,29.42,South,187,7.0,7.0,98,0.64,,---,1.77,VWS V14.01,2013-11-27 10:14:00,
2013-11-27 05:20:00,57.3,56.7,29.41,South,185,4.0,7.0,98,0.59,,---,1.79,VWS V14.01,2013-11-27 10:20:00,
2013-11-27 05:25:00,58.1,57.5,29.41,SSW,200,4.0,7.0,98,0.55,,---,1.80,VWS V14.01,2013-11-27 10:25:00,
2013-11-27 05:30:00,58.6,58.0,29.41,SSE,165,6.0,17.0,98,0.53,,---,1.83,VWS V14.01,2013-11-27 10:30:00,
2013-11-27 05:35:00,58.9,58.3,29.40,South,175,6.0,13.0,98,0.48,,---,1.85,VWS V14.01,2013-11-27 10:35:00,
2013-11-27 05:40:00,59.0,58.4,29.40,South,182,5.0,13.0,98,0.44,,---,1.87,VWS V14.01,2013-11-27 10:40:00,
2013-11-27 05:45:00,59.2,58.6,29.40,South,173,5.0,8.0,98,0.40,,---,1.89,VWS V14.01,2013-11-27 10:45:00,
2013-11-27 05:50:00,59.3,58.7,29.40,NE,51,1.0,11.0,98,0.34,,---,1.90,VWS V14.01,2013-11-27 10:50:00,
2013-11-27 05:55:00,59.6,59.0,29.40,South,169,9.0,12.0,98,0.31,,---,1.92,VWS V14.01,2013-11-27 10:55:00,
2013-11-27 06:00:00,59.9,59.3,29.40,SSW,200,9.0,11.0,98,0.30,,---,1.96,VWS V14.01,2013-11-27 11:00:00,
2013-11-27 06:05:00,60.1,59.5,29.39,South,171,3.0,7.0,98,0.27,,---,1.99,VWS V14.01,2013-11-27 11:05:00,
2013-11-27 06:10:00,60.1,59.5,29.39,South,169,7.0,13.0,98,0.26,,---,2.01,VWS V14.01,2013-11-27 11:10:00,
2013-11-27 06:15:00,60.2,59.6,29.39,SE,146,7.0,12.0,98,0.24,,---,2.01,VWS V14.01,2013-11-27 11:15:00,
2013-11-27 06:20:00,60.1,59.5,29.38,ENE,70,11.0,12.0,98,0.26,,---,2.04,VWS V14.01,2013-11-27 11:20:00,
2013-11-27 06:25:00,60.2,59.6,29.39,SW,219,5.0,7.0,98,0.26,,---,2.06,VWS V14.01,2013-11-27 11:25:00,
2013-11-27 06:31:00,60.4,59.8,29.40,South,186,5.0,10.0,98,0.29,,---,2.12,VWS V14.01,2013-11-27 11:31:00,
2013-11-27 06:36:00,60.4,59.8,29.41,SSE,157,4.0,11.0,98,0.28,,---,2.13,VWS V14.01,2013-11-27 11:36:00,
2013-11-27 06:41:00,60.4,59.8,29.41,South,187,3.0,3.0,98,0.28,,---,2.15,VWS V14.01,2013-11-27 11:41:00,
2013-11-27 06:46:00,60.5,59.9,29.40,SSW,205,0.0,4.0,98,0.31,,---,2.20,VWS V14.01,2013-11-27 11:46:00,
2013-11-27 06:51:00,60.5,59.9,29.40,South,184,6.0,11.0,98,0.36,,---,2.26,VWS V14.01,2013-11-27 11:51:00,
2013-11-27 06:57:00,60.5,59.9,29.40,South,178,4.0,4.0,98,0.40,,---,2.32,VWS V14.01,2013-11-27 11:57:00,
2013-11-27 07:02:00,60.4,59.8,29.39,South,172,0.0,1.0,98,0.38,,---,2.35,VWS V14.01,2013-11-27 12:02:00,
2013-11-27 07:07:00,60.4,59.8,29.39,South,177,2.0,5.0,98,0.37,,---,2.37,VWS V14.01,2013-11-27 12:07:00,
2013-11-27 07:12:00,60.4,59.5,29.39,South,173,2.0,6.0,97,0.38,,---,2.39,VWS V14.01,2013-11-27 12:12:00,
2013-11-27 07:17:00,60.4,59.5,29.39,South,182,1.0,3.0,97,0.38,,---,2.40,VWS V14.01,2013-11-27 12:17:00,
2013-11-27 07:23:00,60.2,59.3,29.39,SSW,202,3.0,7.0,97,0.36,,---,2.41,VWS V14.01,2013-11-27 12:23:00,
2013-11-27 07:28:00,60.2,59.3,29.38,South,186,4.0,5.0,97,0.32,,---,2.41,VWS V14.01,2013-11-27 12:28:00,
2013-11-27 07:33:00,60.2,59.3,29.38,ESE,117,0.0,9.0,97,0.30,,---,2.42,VWS V14.01,2013-11-27 12:33:00,
2013-11-27 07:38:00,60.2,59.3,29.38,SSW,194,2.0,3.0,97,0.29,,---,2.42,VWS V14.01,2013-11-27 12:38:00,
2013-11-27 07:43:00,60.4,59.8,29.38,South,173,0.0,5.0,98,0.27,,---,2.43,VWS V14.01,2013-11-27 12:43:00,
2013-11-27 07:48:00,60.4,59.5,29.38,SSE,167,0.0,5.0,97,0.21,,---,2.43,VWS V14.01,2013-11-27 12:48:00,
2013-11-27 07:53:00,60.4,59.8,29.38,South,177,1.0,6.0,98,0.16,,---,2.43,VWS V14.01,2013-11-27 12:53:00,
2013-11-27 07:58:00,60.4,59.8,29.38,South,175,0.0,4.0,98,0.11,,---,2.43,VWS V14.01,2013-11-27 12:58:00,
2013-11-27 08:03:00,60.4,59.5,29.38,South,181,1.0,5.0,97,0.08,,---,2.43,VWS V14.01,2013-11-27 13:03:00,
2013-11-27 08:08:00,60.4,59.5,29.38,SSE,165,1.0,5.0,97,0.06,,---,2.43,VWS V14.01,2013-11-27 13:08:00,
2013-11-27 08:14:00,60.4,59.5,29.38,South,180,5.0,7.0,97,0.04,,---,2.43,VWS V14.01,2013-11-27 13:14:00,
2013-11-27 08:19:00,60.4,59.5,29.38,SSE,163,1.0,3.0,97,0.04,,---,2.44,VWS V14.01,2013-11-27 13:19:00,
2013-11-27 08:24:00,60.2,59.3,29.38,South,175,2.0,4.0,97,0.03,,---,2.44,VWS V14.01,2013-11-27 13:24:00,
2013-11-27 08:29:00,60.2,59.3,29.38,SSE,167,4.0,4.0,97,0.03,,---,2.44,VWS V14.01,2013-11-27 13:29:00,
2013-11-27 08:35:00,60.1,59.2,29.38,South,191,0.0,4.0,97,0.02,,---,2.44,VWS V14.01,2013-11-27 13:35:00,
2013-11-27 08:40:00,59.9,59.0,29.37,SSE,160,2.0,3.0,97,0.01,,---,2.44,VWS V14.01,2013-11-27 13:40:00,
2013-11-27 08:45:00,59.9,59.0,29.36,South,184,2.0,2.0,97,0.01,,---,2.44,VWS V14.01,2013-11-27 13:45:00,
2013-11-27 08:50:00,59.9,59.0,29.37,South,184,0.0,0.0,97,0.01,,---,2.44,VWS V14.01,2013-11-27 13:50:00,
2013-11-27 08:55:00,59.8,59.0,29.36,South,184,2.0,2.0,97,0.01,,---,2.44,VWS V14.01,2013-11-27 13:55:00,
2013-11-27 09:01:00,59.8,59.0,29.36,SSE,166,0.0,3.0,97,0.01,,---,2.44,VWS V14.01,2013-11-27 14:01:00,
2013-11-27 09:06:00,59.6,58.8,29.36,South,171,3.0,5.0,97,0.01,,---,2.44,VWS V14.01,2013-11-27 14:06:00,
2013-11-27 09:11:00,59.6,58.8,29.37,South,175,0.0,2.0,97,0.01,,---,2.44,VWS V14.01,2013-11-27 14:11:00,
2013-11-27 09:16:00,59.5,58.7,29.37,South,169,3.0,3.0,97,0.00,,---,2.44,VWS V14.01,2013-11-27 14:16:00,
2013-11-27 09:21:00,59.5,58.7,29.37,South,187,0.0,3.0,97,0.01,,---,2.45,VWS V14.01,2013-11-27 14:21:00,
2013-11-27 09:27:00,59.3,58.5,29.37,South,187,0.0,0.0,97,0.02,,---,2.46,VWS V14.01,2013-11-27 14:27:00,
2013-11-27 09:33:00,59.2,58.3,29.37,SSE,159,0.0,0.0,97,0.03,,---,2.47,VWS V14.01,2013-11-27 14:33:00,
2013-11-27 09:38:00,59.2,58.3,29.38,SSE,159,0.0,2.0,97,0.04,,---,2.48,VWS V14.01,2013-11-27 14:38:00,
2013-11-27 09:43:00,59.2,58.3,29.38,SSE,163,0.0,2.0,97,0.05,,---,2.49,VWS V14.01,2013-11-27 14:43:00,
2013-11-27 09:48:00,59.2,58.3,29.38,SSE,164,2.0,2.0,97,0.06,,---,2.50,VWS V14.01,2013-11-27 14:48:00,
2013-11-27 09:53:00,59.0,58.2,29.38,South,171,1.0,3.0,97,0.07,,---,2.51,VWS V14.01,2013-11-27 14:53:00,
2013-11-27 09:58:00,58.9,58.0,29.39,West,273,4.0,7.0,97,0.09,,---,2.53,VWS V14.01,2013-11-27 14:58:00,
2013-11-27 10:03:00,57.3,56.2,29.39,WSW,248,1.0,2.0,96,0.09,,---,2.53,VWS V14.01,2013-11-27 15:03:00,
2013-11-27 10:08:00,55.6,54.2,29.38,SW,229,0.0,0.0,95,0.10,,---,2.54,VWS V14.01,2013-11-27 15:08:00,
2013-11-27 10:13:00,54.7,53.3,29.37,NW,306,0.0,0.0,95,0.11,,---,2.55,VWS V14.01,2013-11-27 15:13:00,
2013-11-27 10:18:00,54.2,53.1,29.36,NW,306,0.0,0.0,96,0.11,,---,2.55,VWS V14.01,2013-11-27 15:18:00,
2013-11-27 10:23:00,54.1,53.0,29.34,WNW,296,3.0,3.0,96,0.10,,---,2.55,VWS V14.01,2013-11-27 15:23:00,
2013-11-27 10:28:00,54.1,53.0,29.34,NNW,327,0.0,0.0,96,0.09,,---,2.55,VWS V14.01,2013-11-27 15:28:00,
2013-11-27 10:33:00,53.9,52.8,29.36,NNW,327,0.0,0.0,96,0.08,,---,2.55,VWS V14.01,2013-11-27 15:33:00,
2013-11-27 10:38:00,53.9,52.8,29.36,NNW,327,0.0,0.0,96,0.08,,---,2.56,VWS V14.01,2013-11-27 15:38:00,
2013-11-27 10:43:00,53.9,52.8,29.36,NNW,327,0.0,0.0,96,0.07,,---,2.56,VWS V14.01,2013-11-27 15:43:00,
2013-11-27 10:48:00,53.9,52.8,29.35,NNW,327,0.0,0.0,96,0.06,,---,2.56,VWS V14.01,2013-11-27 15:48:00,
2013-11-27 10:53:00,53.9,52.8,29.34,NNW,327,0.0,0.0,96,0.06,,---,2.57,VWS V14.01,2013-11-27 15:53:00,
2013-11-27 10:58:00,53.8,52.7,29.33,NNW,327,0.0,0.0,96,0.04,,---,2.57,VWS V14.01,2013-11-27 15:58:00,
2013-11-27 11:03:00,53.8,52.7,29.34,NNW,327,0.0,0.0,96,0.04,,---,2.57,VWS V14.01,2013-11-27 16:03:00,
2013-11-27 11:09:00,53.5,52.4,29.33,NW,311,0.0,1.0,96,0.04,,---,2.58,VWS V14.01,2013-11-27 16:09:00,
2013-11-27 11:14:00,53.1,52.0,29.32,NW,321,0.0,0.0,96,0.03,,---,2.58,VWS V14.01,2013-11-27 16:14:00,
2013-11-27 11:19:00,52.8,51.7,29.32,West,275,3.0,3.0,96,0.03,,---,2.58,VWS V14.01,2013-11-27 16:19:00,
2013-11-27 11:24:00,52.3,51.2,29.32,West,280,0.0,2.0,96,0.03,,---,2.58,VWS V14.01,2013-11-27 16:24:00,
2013-11-27 11:30:00,51.9,50.8,29.32,NNW,339,0.0,0.0,96,0.03,,---,2.58,VWS V14.01,2013-11-27 16:30:00,
2013-11-27 11:35:00,51.7,50.6,29.32,NW,308,3.0,3.0,96,0.03,,---,2.58,VWS V14.01,2013-11-27 16:35:00,
2013-11-27 11:41:00,51.4,50.3,29.31,NW,312,1.0,2.0,96,0.02,,---,2.58,VWS V14.01,2013-11-27 16:41:00,
2013-11-27 11:46:00,51.0,49.6,29.30,NW,309,4.0,4.0,95,0.02,,---,2.58,VWS V14.01,2013-11-27 16:46:00,
2013-11-27 11:51:00,50.1,48.7,29.32,SW,224,5.0,5.0,95,0.01,,---,2.58,VWS V14.01,2013-11-27 16:51:00,
2013-11-27 11:57:00,48.8,47.2,29.33,West,269,4.0,5.0,94,0.02,,---,2.59,VWS V14.01,2013-11-27 16:57:00,
2013-11-27 12:02:00,48.3,46.9,29.34,WNW,302,3.0,5.0,95,0.02,,---,2.59,VWS V14.01,2013-11-27 17:02:00,
2013-11-27 12:07:00,47.9,46.5,29.34,West,269,3.0,4.0,95,0.02,,---,2.59,VWS V14.01,2013-11-27 17:07:00,
2013-11-27 12:12:00,47.6,46.2,29.34,West,263,3.0,6.0,95,0.02,,---,2.60,VWS V14.01,2013-11-27 17:12:00,
2013-11-27 12:18:00,47.3,45.9,29.34,WNW,298,3.0,3.0,95,0.02,,---,2.60,VWS V14.01,2013-11-27 17:18:00,
2013-11-27 12:23:00,47.0,45.7,29.35,NW,317,0.0,7.0,95,0.03,,---,2.61,VWS V14.01,2013-11-27 17:23:00,
2013-11-27 12:28:00,46.7,45.3,29.34,WNW,286,1.0,10.0,95,0.03,,---,2.61,VWS V14.01,2013-11-27 17:28:00,
2013-11-27 12:33:00,46.4,45.0,29.34,NW,311,3.0,5.0,95,0.04,,---,2.62,VWS V14.01,2013-11-27 17:33:00,
2013-11-27 12:38:00,46.0,44.7,29.35,West,278,0.0,2.0,95,0.04,,---,2.62,VWS V14.01,2013-11-27 17:38:00,
2013-11-27 12:44:00,45.7,44.3,29.35,NW,313,3.0,4.0,95,0.04,,---,2.62,VWS V14.01,2013-11-27 17:44:00,
2013-11-27 12:49:00,45.2,43.6,29.35,NW,323,3.0,7.0,94,0.04,,---,2.62,VWS V14.01,2013-11-27 17:49:00,
2013-11-27 12:55:00,44.8,43.2,29.35,NW,321,4.0,4.0,94,0.04,,---,2.62,VWS V14.01,2013-11-27 17:55:00,
2013-11-27 13:00:00,44.5,42.9,29.36,WNW,300,3.0,3.0,94,0.04,,---,2.63,VWS V14.01,2013-11-27 18:00:00,
2013-11-27 13:06:00,44.2,42.6,29.36,NW,304,3.0,3.0,94,0.04,,---,2.63,VWS V14.01,2013-11-27 18:06:00,
2013-11-27 13:11:00,43.9,42.3,29.35,NW,311,4.0,6.0,94,0.04,,---,2.63,VWS V14.01,2013-11-27 18:11:00,
2013-11-27 13:16:00,43.6,42.0,29.34,WSW,244,7.0,7.0,94,0.03,,---,2.63,VWS V14.01,2013-11-27 18:16:00,
2013-11-27 13:22:00,43.2,41.6,29.33,NW,320,1.0,4.0,94,0.02,,---,2.63,VWS V14.01,2013-11-27 18:22:00,
2013-11-27 13:28:00,42.9,41.3,29.33,WNW,286,2.0,4.0,94,0.02,,---,2.63,VWS V14.01,2013-11-27 18:28:00,
2013-11-27 13:34:00,42.5,40.9,29.33,NW,306,4.0,10.0,94,0.01,,---,2.63,VWS V14.01,2013-11-27 18:34:00,
2013-11-27 13:39:00,42.1,40.2,29.34,NNW,348,7.0,7.0,93,0.01,,---,2.63,VWS V14.01,2013-11-27 18:39:00,
2013-11-27 13:44:00,41.8,39.9,29.34,WNW,283,1.0,3.0,93,0.01,,---,2.63,VWS V14.01,2013-11-27 18:44:00,
2013-11-27 13:49:00,41.6,39.7,29.35,WNW,286,3.0,5.0,93,0.01,,---,2.63,VWS V14.01,2013-11-27 18:49:00,
2013-11-27 13:55:00,41.5,39.6,29.35,WNW,294,2.0,4.0,93,0.01,,---,2.63,VWS V14.01,2013-11-27 18:55:00,
2013-11-27 13:58:00,41.5,39.6,29.35,NW,307,0.0,4.0,93,0.01,,---,2.63,VWS V14.01,2013-11-27 18:58:00,
2013-11-27 14:03:00,41.2,39.3,29.35,NW,309,1.0,3.0,93,0.00,,---,2.63,VWS V14.01,2013-11-27 19:03:00,
2013-11-27 14:09:00,41.1,39.2,29.35,West,281,2.0,3.0,93,0.01,,---,2.64,VWS V14.01,2013-11-27 19:09:00,
2013-11-27 14:14:00,40.9,39.0,29.34,West,279,3.0,5.0,93,0.01,,---,2.64,VWS V14.01,2013-11-27 19:14:00,
2013-11-27 14:19:00,40.8,38.9,29.35,NW,319,2.0,2.0,93,0.02,,---,2.65,VWS V14.01,2013-11-27 19:19:00,
2013-11-27 14:24:00,40.8,38.9,29.34,NW,305,1.0,6.0,93,0.02,,---,2.65,VWS V14.01,2013-11-27 19:24:00,
2013-11-27 14:29:00,40.6,38.7,29.34,NW,319,2.0,4.0,93,0.02,,---,2.65,VWS V14.01,2013-11-27 19:29:00,
2013-11-27 14:34:00,40.3,38.4,29.34,NW,311,0.0,4.0,93,0.02,,---,2.65,VWS V14.01,2013-11-27 19:34:00,
2013-11-27 14:39:00,40.3,38.4,29.34,WNW,297,5.0,5.0,93,0.03,,---,2.66,VWS V14.01,2013-11-27 19:39:00,
2013-11-27 14:44:00,40.1,38.2,29.34,West,263,4.0,5.0,93,0.03,,---,2.66,VWS V14.01,2013-11-27 19:44:00,
2013-11-27 14:49:00,39.9,38.0,29.33,NW,309,3.0,4.0,93,0.03,,---,2.66,VWS V14.01,2013-11-27 19:49:00,
2013-11-27 14:54:00,39.8,38.0,29.32,NNW,331,2.0,4.0,93,0.03,,---,2.66,VWS V14.01,2013-11-27 19:54:00,
2013-11-27 14:59:00,39.6,38.0,29.32,NW,315,5.0,5.0,94,0.03,,---,2.66,VWS V14.01,2013-11-27 19:59:00,
2013-11-27 15:04:00,39.5,37.9,29.33,West,281,4.0,5.0,94,0.03,,---,2.66,VWS V14.01,2013-11-27 20:04:00,
2013-11-27 15:09:00,39.5,37.9,29.34,WNW,300,1.0,5.0,94,0.03,,---,2.67,VWS V14.01,2013-11-27 20:09:00,
2013-11-27 15:14:00,39.3,37.5,29.33,West,279,2.0,4.0,93,0.03,,---,2.67,VWS V14.01,2013-11-27 20:14:00,
2013-11-27 15:19:00,39.1,37.2,29.33,NW,313,5.0,7.0,93,0.04,,---,2.68,VWS V14.01,2013-11-27 20:19:00,
2013-11-27 15:24:00,38.9,37.0,29.33,WNW,291,2.0,4.0,93,0.03,,---,2.68,VWS V14.01,2013-11-27 20:24:00,
2013-11-27 15:29:00,38.8,37.0,29.33,NNW,331,3.0,4.0,93,0.03,,---,2.68,VWS V14.01,2013-11-27 20:29:00,
2013-11-27 15:34:00,38.8,37.0,29.33,West,273,3.0,7.0,93,0.03,,---,2.68,VWS V14.01,2013-11-27 20:34:00,
2013-11-27 15:39:00,38.6,36.8,29.33,WNW,299,2.0,5.0,93,0.03,,---,2.69,VWS V14.01,2013-11-27 20:39:00,
2013-11-27 15:44:00,38.5,36.7,29.35,NW,306,2.0,4.0,93,0.03,,---,2.69,VWS V14.01,2013-11-27 20:44:00,
2013-11-27 15:49:00,38.5,36.9,29.35,NW,305,3.0,4.0,94,0.03,,---,2.69,VWS V14.01,2013-11-27 20:49:00,
2013-11-27 15:54:00,38.3,36.7,29.35,NNW,335,2.0,5.0,94,0.04,,---,2.70,VWS V14.01,2013-11-27 20:54:00,
2013-11-27 15:59:00,38.3,36.7,29.35,NW,317,1.0,4.0,94,0.04,,---,2.70,VWS V14.01,2013-11-27 20:59:00,
2013-11-27 16:04:00,38.2,36.6,29.36,WNW,299,1.0,4.0,94,0.05,,---,2.71,VWS V14.01,2013-11-27 21:04:00,
2013-11-27 16:09:00,38.2,36.6,29.35,NW,311,6.0,6.0,94,0.04,,---,2.71,VWS V14.01,2013-11-27 21:09:00,
2013-11-27 16:14:00,38.0,36.4,29.33,West,275,4.0,5.0,94,0.04,,---,2.71,VWS V14.01,2013-11-27 21:14:00,
2013-11-27 16:19:00,37.9,36.3,29.33,WNW,297,3.0,7.0,94,0.03,,---,2.71,VWS V14.01,2013-11-27 21:19:00,
2013-11-27 16:24:00,37.8,36.0,29.33,NW,308,4.0,4.0,93,0.03,,---,2.71,VWS V14.01,2013-11-27 21:24:00,
2013-11-27 16:29:00,37.6,35.8,29.33,SW,227,3.0,6.0,93,0.03,,---,2.71,VWS V14.01,2013-11-27 21:29:00,
2013-11-27 16:35:00,37.5,35.7,29.34,NW,316,2.0,9.0,93,0.03,,---,2.71,VWS V14.01,2013-11-27 21:35:00,
2013-11-27 16:40:00,37.3,35.5,29.34,NW,311,2.0,3.0,93,0.02,,---,2.71,VWS V14.01,2013-11-27 21:40:00,
2013-11-27 16:46:00,37.3,35.5,29.35,WNW,297,2.0,6.0,93,0.02,,---,2.71,VWS V14.01,2013-11-27 21:46:00,
2013-11-27 16:51:00,37.2,35.4,29.35,WNW,295,1.0,5.0,93,0.01,,---,2.71,VWS V14.01,2013-11-27 21:51:00,
2013-11-27 16:56:00,37.0,35.2,29.33,WNW,284,2.0,5.0,93,0.01,,---,2.71,VWS V14.01,2013-11-27 21:56:00,
2013-11-27 17:01:00,37.0,35.2,29.33,NW,304,1.0,6.0,93,0.02,,---,2.72,VWS V14.01,2013-11-27 22:01:00,
2013-11-27 17:07:00,36.9,34.8,29.34,WNW,302,3.0,3.0,92,0.01,,---,2.72,VWS V14.01,2013-11-27 22:07:00,
2013-11-27 17:12:00,36.9,34.8,29.35,WNW,292,4.0,4.0,92,0.01,,---,2.72,VWS V14.01,2013-11-27 22:12:00,
2013-11-27 17:17:00,36.8,34.7,29.33,NW,321,6.0,10.0,92,0.02,,---,2.73,VWS V14.01,2013-11-27 22:17:00,
2013-11-27 17:22:00,36.6,34.8,29.34,NW,305,6.0,6.0,93,0.02,,---,2.73,VWS V14.01,2013-11-27 22:22:00,
2013-11-27 17:27:00,36.6,34.8,29.34,WNW,297,0.0,10.0,93,0.02,,---,2.73,VWS V14.01,2013-11-27 22:27:00,
2013-11-27 17:32:00,36.5,34.7,29.34,NW,305,3.0,4.0,93,0.02,,---,2.73,VWS V14.01,2013-11-27 22:32:00,
2013-11-27 17:37:00,36.5,34.7,29.35,WNW,300,4.0,5.0,93,0.02,,---,2.73,VWS V14.01,2013-11-27 22:37:00,
2013-11-27 17:42:00,36.3,34.2,29.35,WNW,290,4.0,6.0,92,0.02,,---,2.73,VWS V14.01,2013-11-27 22:42:00,
2013-11-27 17:48:00,36.2,34.1,29.35,NW,323,2.0,6.0,92,0.02,,---,2.73,VWS V14.01,2013-11-27 22:48:00,
2013-11-27 17:53:00,36.0,33.9,29.35,WNW,284,4.0,5.0,92,0.02,,---,2.73,VWS V14.01,2013-11-27 22:53:00,
2013-11-27 17:58:00,36.0,33.9,29.35,WNW,302,3.0,7.0,92,0.02,,---,2.73,VWS V14.01,2013-11-27 22:58:00,
2013-11-27 18:03:00,36.0,33.9,29.36,NNW,340,1.0,6.0,92,0.01,,---,2.73,VWS V14.01,2013-11-27 23:03:00,
2013-11-27 18:08:00,35.9,33.8,29.37,NW,315,3.0,11.0,92,0.01,,---,2.73,VWS V14.01,2013-11-27 23:08:00,
2013-11-27 18:14:00,35.9,33.8,29.38,NW,310,3.0,4.0,92,0.01,,---,2.73,VWS V14.01,2013-11-27 23:14:00,
2013-11-27 18:20:00,35.9,33.8,29.39,NW,326,2.0,6.0,92,0.01,,---,2.74,VWS V14.01,2013-11-27 23:20:00,
2013-11-27 18:25:00,35.8,33.7,29.40,WNW,290,4.0,5.0,92,0.02,,---,2.75,VWS V14.01,2013-11-27 23:25:00,
2013-11-27 18:30:00,35.8,33.7,29.40,West,274,5.0,15.0,92,0.02,,---,2.75,VWS V14.01,2013-11-27 23:30:00,
2013-11-27 18:35:00,35.6,33.5,29.42,NW,313,2.0,4.0,92,0.03,,---,2.76,VWS V14.01,2013-11-27 23:35:00,
2013-11-27 18:40:00,35.6,33.5,29.41,WNW,297,4.0,7.0,92,0.03,,---,2.76,VWS V14.01,2013-11-27 23:40:00,
2013-11-27 18:45:00,35.5,33.4,29.43,West,276,2.0,6.0,92,0.03,,---,2.76,VWS V14.01,2013-11-27 23:45:00,
2013-11-27 18:50:00,35.5,33.4,29.44,West,277,3.0,5.0,92,0.03,,---,2.76,VWS V14.01,2013-11-27 23:50:00,
2013-11-27 18:55:00,35.3,33.2,29.45,West,271,5.0,5.0,92,0.03,,---,2.76,VWS V14.01,2013-11-27 23:55:00,
2013-11-27 19:01:00,35.3,33.2,29.46,West,269,2.0,6.0,92,0.03,,---,2.76,VWS V14.01,2013-11-28 00:01:00,
2013-11-27 19:06:00,35.2,33.1,29.45,NNW,335,0.0,5.0,92,0.03,,---,2.76,VWS V14.01,2013-11-28 00:06:00,
2013-11-27 19:11:00,35.2,33.1,29.46,West,264,4.0,7.0,92,0.03,,---,2.76,VWS V14.01,2013-11-28 00:11:00,
2013-11-27 19:17:00,35.0,32.9,29.46,NW,310,3.0,3.0,92,0.02,,---,2.76,VWS V14.01,2013-11-28 00:17:00,
2013-11-27 19:22:00,35.0,32.9,29.46,West,273,3.0,7.0,92,0.02,,---,2.76,VWS V14.01,2013-11-28 00:22:00,
2013-11-27 19:28:00,34.9,32.8,29.47,WNW,294,3.0,3.0,92,0.01,,---,2.76,VWS V14.01,2013-11-28 00:28:00,
2013-11-27 19:33:00,34.7,32.6,29.47,NNW,333,2.0,5.0,92,0.00,,---,2.76,VWS V14.01,2013-11-28 00:33:00,
2013-11-27 19:39:00,34.6,32.5,29.46,WNW,282,4.0,9.0,92,0.00,,---,2.76,VWS V14.01,2013-11-28 00:39:00,
2013-11-27 19:44:00,34.6,32.5,29.47,WNW,291,2.0,7.0,92,0.00,,---,2.76,VWS V14.01,2013-11-28 00:44:00,
2013-11-27 19:49:00,34.4,32.6,29.46,WNW,290,4.0,5.0,93,0.00,,---,2.76,VWS V14.01,2013-11-28 00:49:00,
2013-11-27 19:55:00,34.3,32.5,29.47,WNW,290,2.0,4.0,93,0.00,,---,2.76,VWS V14.01,2013-11-28 00:55:00,
2013-11-27 20:00:00,34.3,32.5,29.47,NW,318,1.0,3.0,93,0.00,,---,2.76,VWS V14.01,2013-11-28 01:00:00,
2013-11-27 20:05:00,34.1,32.3,29.47,NW,304,2.0,4.0,93,0.00,,---,2.76,VWS V14.01,2013-11-28 01:05:00,
2013-11-27 20:10:00,34.1,32.3,29.47,WNW,296,3.0,4.0,93,0.00,,---,2.76,VWS V14.01,2013-11-28 01:10:00,
2013-11-27 20:15:00,34.1,32.3,29.47,NW,309,2.0,3.0,93,0.00,,---,2.76,VWS V14.01,2013-11-28 01:15:00,
2013-11-27 20:20:00,34.1,32.3,29.47,WNW,288,3.0,3.0,93,0.00,,---,2.76,VWS V14.01,2013-11-28 01:20:00,
2013-11-27 20:26:00,34.1,32.3,29.48,NW,311,1.0,3.0,93,0.00,,---,2.76,VWS V14.01,2013-11-28 01:26:00,
2013-11-27 20:32:00,34.1,32.3,29.48,WNW,299,3.0,4.0,93,0.00,,---,2.76,VWS V14.01,2013-11-28 01:32:00,
2013-11-27 20:37:00,34.1,32.3,29.48,NW,314,3.0,3.0,93,0.00,,---,2.76,VWS V14.01,2013-11-28 01:37:00,
2013-11-27 20:42:00,34.1,32.3,29.48,NW,319,1.0,4.0,93,0.00,,---,2.76,VWS V14.01,2013-11-28 01:42:00,
2013-11-27 20:47:00,34.0,31.9,29.48,WNW,284,4.0,4.0,92,0.00,,---,2.76,VWS V14.01,2013-11-28 01:47:00,
2013-11-27 20:52:00,34.0,31.9,29.48,West,264,3.0,4.0,92,0.00,,---,2.76,VWS V14.01,2013-11-28 01:52:00,
2013-11-27 20:58:00,34.0,31.9,29.49,West,273,5.0,5.0,92,0.00,,---,2.76,VWS V14.01,2013-11-28 01:58:00,
2013-11-27 21:04:00,34.0,31.9,29.49,WNW,294,2.0,3.0,92,0.00,,---,2.76,VWS V14.01,2013-11-28 02:04:00,
2013-11-27 21:09:00,34.1,32.0,29.49,West,269,3.0,3.0,92,0.00,,---,2.76,VWS V14.01,2013-11-28 02:09:00,
2013-11-27 21:14:00,34.1,32.0,29.49,WNW,302,3.0,3.0,92,0.00,,---,2.76,VWS V14.01,2013-11-28 02:14:00,
2013-11-27 21:19:00,34.1,31.8,29.50,NW,316,1.0,3.0,91,0.00,,---,2.76,VWS V14.01,2013-11-28 02:19:00,
2013-11-27 21:25:00,34.1,31.8,29.50,NW,305,2.0,2.0,91,0.00,,---,2.76,VWS V14.01,2013-11-28 02:25:00,
2013-11-27 21:30:00,34.1,31.8,29.51,NW,323,2.0,2.0,91,0.00,,---,2.76,VWS V14.01,2013-11-28 02:30:00,
2013-11-27 21:35:00,34.1,31.5,29.51,NW,311,2.0,3.0,90,0.00,,---,2.76,VWS V14.01,2013-11-28 02:35:00,
2013-11-27 21:41:00,34.1,31.5,29.51,NW,314,1.0,1.0,90,0.00,,---,2.76,VWS V14.01,2013-11-28 02:41:00,
2013-11-27 21:46:00,34.1,31.2,29.51,NW,311,1.0,1.0,89,0.00,,---,2.76,VWS V14.01,2013-11-28 02:46:00,
2013-11-27 21:51:00,34.1,31.2,29.52,WNW,292,0.0,1.0,89,0.00,,---,2.76,VWS V14.01,2013-11-28 02:51:00,
2013-11-27 21:56:00,34.3,31.4,29.52,WNW,283,3.0,3.0,89,0.00,,---,2.76,VWS V14.01,2013-11-28 02:56:00,
2013-11-27 22:02:00,34.3,31.4,29.52,SW,217,3.0,3.0,89,0.00,,---,2.76,VWS V14.01,2013-11-28 03:02:00,
2013-11-27 22:07:00,34.3,31.1,29.53,WNW,289,0.0,0.0,88,0.00,,---,2.76,VWS V14.01,2013-11-28 03:07:00,
2013-11-27 22:12:00,34.3,31.1,29.53,SSW,213,2.0,3.0,88,0.00,,---,2.76,VWS V14.01,2013-11-28 03:12:00,
2013-11-27 22:17:00,34.4,30.9,29.54,WNW,296,0.0,2.0,87,0.00,,---,2.76,VWS V14.01,2013-11-28 03:17:00,
2013-11-27 22:23:00,34.4,30.9,29.54,SW,236,2.0,3.0,87,0.00,,---,2.76,VWS V14.01,2013-11-28 03:23:00,
2013-11-27 22:29:00,34.6,30.9,29.55,West,278,1.0,2.0,86,0.00,,---,2.76,VWS V14.01,2013-11-28 03:29:00,
2013-11-27 22:34:00,34.4,30.6,29.55,West,278,3.0,3.0,86,0.00,,---,2.76,VWS V14.01,2013-11-28 03:34:00,
2013-11-27 22:39:00,34.6,30.9,29.56,WSW,249,2.0,2.0,86,0.00,,---,2.76,VWS V14.01,2013-11-28 03:39:00,
2013-11-27 22:45:00,34.6,30.9,29.56,NNW,330,2.0,4.0,86,0.00,,---,2.76,VWS V14.01,2013-11-28 03:45:00,
2013-11-27 22:50:00,34.6,30.9,29.57,WNW,302,0.0,3.0,86,0.00,,---,2.76,VWS V14.01,2013-11-28 03:50:00,
2013-11-27 22:56:00,34.6,30.9,29.58,SSW,197,2.0,4.0,86,0.00,,---,2.76,VWS V14.01,2013-11-28 03:56:00,
2013-11-27 23:01:00,34.7,30.7,29.58,WSW,253,0.0,8.0,85,0.00,,---,2.76,VWS V14.01,2013-11-28 04:01:00,
2013-11-27 23:06:00,34.7,30.4,29.59,NW,315,2.0,3.0,84,0.00,,---,2.76,VWS V14.01,2013-11-28 04:06:00,
2013-11-27 23:11:00,34.6,29.7,29.60,NNW,333,2.0,5.0,82,0.00,,---,2.76,VWS V14.01,2013-11-28 04:11:00,
2013-11-27 23:16:00,34.3,29.1,29.60,West,275,2.0,5.0,81,0.00,,---,2.76,VWS V14.01,2013-11-28 04:16:00,
2013-11-27 23:21:00,34.1,28.6,29.61,WNW,303,7.0,7.0,80,0.00,,---,2.76,VWS V14.01,2013-11-28 04:21:00,
2013-11-27 23:27:00,34.0,27.9,29.61,West,266,4.0,5.0,78,0.00,,---,2.76,VWS V14.01,2013-11-28 04:27:00,
2013-11-27 23:33:00,33.7,27.3,29.62,WNW,282,4.0,4.0,77,0.00,,---,2.76,VWS V14.01,2013-11-28 04:33:00,
2013-11-27 23:38:00,33.4,26.7,29.62,West,267,7.0,13.0,76,0.00,,---,2.76,VWS V14.01,2013-11-28 04:38:00,
2013-11-27 23:44:00,33.1,25.7,29.63,WNW,294,3.0,5.0,74,0.00,,---,2.76,VWS V14.01,2013-11-28 04:44:00,
2013-11-27 23:49:00,32.9,25.9,29.64,WSW,248,8.0,10.0,75,0.00,,---,2.76,VWS V14.01,2013-11-28 04:49:00,
2013-11-27 23:54:00,32.8,25.1,29.64,WSW,254,6.0,7.0,73,0.00,,---,2.76,VWS V14.01,2013-11-28 04:54:00,
2013-11-27 23:59:00,32.8,24.5,29.64,West,273,8.0,12.0,71,0.00,,---,0.00,VWS V14.01,2013-11-28 04:59:00,